sensor_id;sensor_type;location;lat;lon;timestamp;P1;durP1;ratioP1;P2;durP2;ratioP2
64641;SDS011;59936;51.490;5.436;2024-03-07T00:00:38;7.10;;;3.60;;
64641;SDS011;59936;51.490;5.436;2024-03-07T00:03:05;7.20;;;4.20;;
64641;SDS011;59936;51.490;5.436;2024-03-07T00:05:32;6.30;;;3.60;;
64641;SDS011;59936;51.490;5.436;2024-03-07T00:07:58;6.30;;;2.90;;
64641;SDS011;59936;51.490;5.436;2024-03-07T00:12:52;7.10;;;2.90;;
64641;SDS011;59936;51.490;5.436;2024-03-07T00:15:19;5.40;;;3.40;;
64641;SDS011;59936;51.490;5.436;2024-03-07T00:17:46;5.80;;;3.70;;
64641;SDS011;59936;51.490;5.436;2024-03-07T00:20:12;5.30;;;3.30;;
64641;SDS011;59936;51.490;5.436;2024-03-07T00:25:09;6.30;;;3.20;;
64641;SDS011;59936;51.490;5.436;2024-03-07T00:27:36;6.40;;;3.40;;
64641;SDS011;59936;51.490;5.436;2024-03-07T00:30:04;7.00;;;3.50;;
64641;SDS011;59936;51.490;5.436;2024-03-07T00:32:33;6.60;;;3.80;;
64641;SDS011;59936;51.490;5.436;2024-03-07T00:37:28;7.20;;;3.60;;
64641;SDS011;59936;51.490;5.436;2024-03-07T00:39:55;8.80;;;4.70;;
64641;SDS011;59936;51.490;5.436;2024-03-07T00:42:22;6.90;;;3.50;;
64641;SDS011;59936;51.490;5.436;2024-03-07T00:44:49;7.50;;;4.30;;
64641;SDS011;59936;51.490;5.436;2024-03-07T00:49:43;7.10;;;4.10;;
64641;SDS011;59936;51.490;5.436;2024-03-07T00:52:10;8.00;;;3.90;;
64641;SDS011;59936;51.490;5.436;2024-03-07T00:54:40;8.00;;;4.50;;
64641;SDS011;59936;51.490;5.436;2024-03-07T00:57:08;6.20;;;3.70;;
64641;SDS011;59936;51.490;5.436;2024-03-07T01:02:01;7.40;;;3.90;;
64641;SDS011;59936;51.490;5.436;2024-03-07T01:07:48;8.50;;;6.00;;
64641;SDS011;59936;51.490;5.436;2024-03-07T01:10:15;7.40;;;4.30;;
64641;SDS011;59936;51.490;5.436;2024-03-07T01:12:42;6.00;;;2.90;;
64641;SDS011;59936;51.490;5.436;2024-03-07T01:15:09;5.30;;;2.90;;
64641;SDS011;59936;51.490;5.436;2024-03-07T01:17:36;5.90;;;3.40;;
64641;SDS011;59936;51.490;5.436;2024-03-07T01:20:03;5.70;;;3.20;;
64641;SDS011;59936;51.490;5.436;2024-03-07T01:22:31;5.60;;;2.90;;
64641;SDS011;59936;51.490;5.436;2024-03-07T01:24:58;6.80;;;4.20;;
64641;SDS011;59936;51.490;5.436;2024-03-07T01:27:25;6.60;;;3.90;;
64641;SDS011;59936;51.490;5.436;2024-03-07T01:29:51;8.50;;;3.80;;
64641;SDS011;59936;51.490;5.436;2024-03-07T01:32:18;7.30;;;4.30;;
64641;SDS011;59936;51.490;5.436;2024-03-07T01:34:45;7.20;;;3.20;;
64641;SDS011;59936;51.490;5.436;2024-03-07T01:37:12;6.80;;;4.00;;
64641;SDS011;59936;51.490;5.436;2024-03-07T01:39:39;6.20;;;3.50;;
64641;SDS011;59936;51.490;5.436;2024-03-07T01:42:06;6.20;;;3.20;;
64641;SDS011;59936;51.490;5.436;2024-03-07T01:44:33;6.50;;;3.80;;
64641;SDS011;59936;51.490;5.436;2024-03-07T01:46:59;9.60;;;5.40;;
64641;SDS011;59936;51.490;5.436;2024-03-07T01:49:26;7.00;;;4.00;;
64641;SDS011;59936;51.490;5.436;2024-03-07T01:51:53;5.70;;;3.30;;
64641;SDS011;59936;51.490;5.436;2024-03-07T01:54:20;7.90;;;3.70;;
64641;SDS011;59936;51.490;5.436;2024-03-07T01:56:47;8.40;;;4.20;;
64641;SDS011;59936;51.490;5.436;2024-03-07T01:59:14;6.40;;;3.60;;
64641;SDS011;59936;51.490;5.436;2024-03-07T02:01:41;7.50;;;3.90;;
64641;SDS011;59936;51.490;5.436;2024-03-07T02:04:09;7.30;;;3.90;;
64641;SDS011;59936;51.490;5.436;2024-03-07T02:06:36;8.20;;;4.00;;
64641;SDS011;59936;51.490;5.436;2024-03-07T02:09:03;6.10;;;2.70;;
64641;SDS011;59936;51.490;5.436;2024-03-07T02:11:30;6.70;;;4.30;;
64641;SDS011;59936;51.490;5.436;2024-03-07T02:13:57;7.30;;;4.30;;
64641;SDS011;59936;51.490;5.436;2024-03-07T02:16:24;8.30;;;3.60;;
64641;SDS011;59936;51.490;5.436;2024-03-07T02:18:52;8.80;;;4.30;;
64641;SDS011;59936;51.490;5.436;2024-03-07T02:21:20;7.70;;;4.40;;
64641;SDS011;59936;51.490;5.436;2024-03-07T02:23:46;6.60;;;3.80;;
64641;SDS011;59936;51.490;5.436;2024-03-07T02:26:13;8.00;;;4.40;;
64641;SDS011;59936;51.490;5.436;2024-03-07T02:28:40;6.90;;;3.90;;
64641;SDS011;59936;51.490;5.436;2024-03-07T02:31:07;6.30;;;3.90;;
64641;SDS011;59936;51.490;5.436;2024-03-07T02:33:34;8.90;;;3.80;;
64641;SDS011;59936;51.490;5.436;2024-03-07T02:36:01;7.90;;;4.00;;
64641;SDS011;59936;51.490;5.436;2024-03-07T02:38:28;9.70;;;4.90;;
64641;SDS011;59936;51.490;5.436;2024-03-07T02:40:55;11.00;;;6.60;;
64641;SDS011;59936;51.490;5.436;2024-03-07T02:43:21;10.00;;;5.20;;
64641;SDS011;59936;51.490;5.436;2024-03-07T02:45:48;8.70;;;5.10;;
64641;SDS011;59936;51.490;5.436;2024-03-07T02:48:15;11.30;;;5.30;;
64641;SDS011;59936;51.490;5.436;2024-03-07T02:50:42;9.60;;;4.70;;
64641;SDS011;59936;51.490;5.436;2024-03-07T02:53:09;9.90;;;5.30;;
64641;SDS011;59936;51.490;5.436;2024-03-07T02:55:36;9.40;;;5.10;;
64641;SDS011;59936;51.490;5.436;2024-03-07T02:58:03;9.70;;;5.40;;
64641;SDS011;59936;51.490;5.436;2024-03-07T03:00:30;10.50;;;5.70;;
64641;SDS011;59936;51.490;5.436;2024-03-07T03:02:56;9.80;;;5.20;;
64641;SDS011;59936;51.490;5.436;2024-03-07T03:05:23;11.00;;;6.10;;
64641;SDS011;59936;51.490;5.436;2024-03-07T03:07:50;11.80;;;5.40;;
64641;SDS011;59936;51.490;5.436;2024-03-07T03:10:17;10.60;;;5.50;;
64641;SDS011;59936;51.490;5.436;2024-03-07T03:12:49;12.50;;;6.40;;
64641;SDS011;59936;51.490;5.436;2024-03-07T03:15:16;11.10;;;5.70;;
64641;SDS011;59936;51.490;5.436;2024-03-07T03:17:43;9.90;;;5.80;;
64641;SDS011;59936;51.490;5.436;2024-03-07T03:20:10;10.70;;;6.60;;
64641;SDS011;59936;51.490;5.436;2024-03-07T03:22:37;11.30;;;6.10;;
64641;SDS011;59936;51.490;5.436;2024-03-07T03:25:05;11.90;;;6.20;;
64641;SDS011;59936;51.490;5.436;2024-03-07T03:27:32;11.00;;;5.30;;
64641;SDS011;59936;51.490;5.436;2024-03-07T03:29:59;12.20;;;6.20;;
64641;SDS011;59936;51.490;5.436;2024-03-07T03:32:25;12.20;;;6.30;;
64641;SDS011;59936;51.490;5.436;2024-03-07T03:34:52;11.70;;;6.90;;
64641;SDS011;59936;51.490;5.436;2024-03-07T03:37:19;12.90;;;7.00;;
64641;SDS011;59936;51.490;5.436;2024-03-07T03:39:46;11.30;;;5.00;;
64641;SDS011;59936;51.490;5.436;2024-03-07T03:42:13;11.60;;;5.80;;
64641;SDS011;59936;51.490;5.436;2024-03-07T03:44:40;8.30;;;5.70;;
64641;SDS011;59936;51.490;5.436;2024-03-07T03:47:07;10.80;;;6.10;;
64641;SDS011;59936;51.490;5.436;2024-03-07T03:49:33;9.60;;;5.60;;
64641;SDS011;59936;51.490;5.436;2024-03-07T03:52:00;11.00;;;5.80;;
64641;SDS011;59936;51.490;5.436;2024-03-07T03:54:27;9.00;;;5.50;;
64641;SDS011;59936;51.490;5.436;2024-03-07T03:56:54;10.20;;;5.60;;
64641;SDS011;59936;51.490;5.436;2024-03-07T03:59:21;9.60;;;5.80;;
64641;SDS011;59936;51.490;5.436;2024-03-07T04:01:48;10.80;;;5.60;;
64641;SDS011;59936;51.490;5.436;2024-03-07T04:04:15;8.80;;;5.00;;
64641;SDS011;59936;51.490;5.436;2024-03-07T04:06:41;11.10;;;5.60;;
64641;SDS011;59936;51.490;5.436;2024-03-07T04:09:08;7.00;;;4.20;;
64641;SDS011;59936;51.490;5.436;2024-03-07T04:11:35;9.20;;;5.10;;
64641;SDS011;59936;51.490;5.436;2024-03-07T04:14:02;8.00;;;4.70;;
64641;SDS011;59936;51.490;5.436;2024-03-07T04:16:29;7.30;;;3.50;;
64641;SDS011;59936;51.490;5.436;2024-03-07T04:18:56;7.90;;;4.80;;
64641;SDS011;59936;51.490;5.436;2024-03-07T04:21:22;7.50;;;4.60;;
64641;SDS011;59936;51.490;5.436;2024-03-07T04:23:49;7.30;;;4.40;;
64641;SDS011;59936;51.490;5.436;2024-03-07T04:26:16;7.10;;;4.00;;
64641;SDS011;59936;51.490;5.436;2024-03-07T04:28:43;7.70;;;4.80;;
64641;SDS011;59936;51.490;5.436;2024-03-07T04:31:10;7.60;;;4.00;;
64641;SDS011;59936;51.490;5.436;2024-03-07T04:33:37;7.80;;;5.00;;
64641;SDS011;59936;51.490;5.436;2024-03-07T04:36:04;8.30;;;4.00;;
64641;SDS011;59936;51.490;5.436;2024-03-07T04:38:31;7.70;;;4.30;;
64641;SDS011;59936;51.490;5.436;2024-03-07T04:40:58;6.80;;;3.40;;
64641;SDS011;59936;51.490;5.436;2024-03-07T04:43:25;7.90;;;4.40;;
64641;SDS011;59936;51.490;5.436;2024-03-07T04:45:51;8.60;;;4.60;;
64641;SDS011;59936;51.490;5.436;2024-03-07T04:48:18;8.00;;;4.10;;
64641;SDS011;59936;51.490;5.436;2024-03-07T04:50:45;7.10;;;4.10;;
64641;SDS011;59936;51.490;5.436;2024-03-07T04:53:12;6.40;;;4.20;;
64641;SDS011;59936;51.490;5.436;2024-03-07T04:55:39;6.40;;;3.40;;
64641;SDS011;59936;51.490;5.436;2024-03-07T04:58:06;7.10;;;4.20;;
64641;SDS011;59936;51.490;5.436;2024-03-07T05:00:33;7.00;;;3.30;;
64641;SDS011;59936;51.490;5.436;2024-03-07T05:02:59;7.80;;;3.50;;
64641;SDS011;59936;51.490;5.436;2024-03-07T05:05:26;7.90;;;3.40;;
64641;SDS011;59936;51.490;5.436;2024-03-07T05:07:53;6.60;;;3.60;;
64641;SDS011;59936;51.490;5.436;2024-03-07T05:10:20;5.90;;;3.10;;
64641;SDS011;59936;51.490;5.436;2024-03-07T05:12:47;6.90;;;3.90;;
64641;SDS011;59936;51.490;5.436;2024-03-07T05:15:14;5.70;;;3.10;;
64641;SDS011;59936;51.490;5.436;2024-03-07T05:17:41;5.50;;;3.90;;
64641;SDS011;59936;51.490;5.436;2024-03-07T05:20:09;6.10;;;3.50;;
64641;SDS011;59936;51.490;5.436;2024-03-07T05:22:36;5.80;;;3.00;;
64641;SDS011;59936;51.490;5.436;2024-03-07T05:25:03;6.40;;;3.80;;
64641;SDS011;59936;51.490;5.436;2024-03-07T05:27:31;5.90;;;3.30;;
64641;SDS011;59936;51.490;5.436;2024-03-07T05:29:58;7.40;;;3.90;;
64641;SDS011;59936;51.490;5.436;2024-03-07T05:32:25;7.50;;;4.50;;
64641;SDS011;59936;51.490;5.436;2024-03-07T05:34:53;7.10;;;3.30;;
64641;SDS011;59936;51.490;5.436;2024-03-07T05:37:20;6.10;;;4.10;;
64641;SDS011;59936;51.490;5.436;2024-03-07T05:39:48;7.50;;;3.90;;
64641;SDS011;59936;51.490;5.436;2024-03-07T05:42:17;6.50;;;3.90;;
64641;SDS011;59936;51.490;5.436;2024-03-07T05:44:44;7.90;;;4.40;;
64641;SDS011;59936;51.490;5.436;2024-03-07T05:47:11;6.50;;;4.10;;
64641;SDS011;59936;51.490;5.436;2024-03-07T05:49:39;7.50;;;3.80;;
64641;SDS011;59936;51.490;5.436;2024-03-07T05:52:06;8.10;;;4.70;;
64641;SDS011;59936;51.490;5.436;2024-03-07T05:54:33;7.00;;;4.20;;
64641;SDS011;59936;51.490;5.436;2024-03-07T05:57:01;7.90;;;4.60;;
64641;SDS011;59936;51.490;5.436;2024-03-07T05:59:28;10.30;;;5.70;;
64641;SDS011;59936;51.490;5.436;2024-03-07T06:01:55;9.40;;;5.10;;
64641;SDS011;59936;51.490;5.436;2024-03-07T06:04:22;9.10;;;4.90;;
64641;SDS011;59936;51.490;5.436;2024-03-07T06:06:49;8.50;;;5.10;;
64641;SDS011;59936;51.490;5.436;2024-03-07T06:09:16;7.70;;;3.80;;
64641;SDS011;59936;51.490;5.436;2024-03-07T06:11:43;7.90;;;3.60;;
64641;SDS011;59936;51.490;5.436;2024-03-07T06:16:37;9.30;;;5.50;;
64641;SDS011;59936;51.490;5.436;2024-03-07T06:19:05;7.50;;;4.50;;
64641;SDS011;59936;51.490;5.436;2024-03-07T06:21:34;9.70;;;4.10;;
64641;SDS011;59936;51.490;5.436;2024-03-07T06:24:04;8.30;;;5.30;;
64641;SDS011;59936;51.490;5.436;2024-03-07T06:26:31;7.80;;;4.00;;
64641;SDS011;59936;51.490;5.436;2024-03-07T06:29:00;7.50;;;4.00;;
64641;SDS011;59936;51.490;5.436;2024-03-07T06:31:27;9.10;;;4.90;;
64641;SDS011;59936;51.490;5.436;2024-03-07T06:33:54;8.00;;;4.30;;
64641;SDS011;59936;51.490;5.436;2024-03-07T06:36:21;7.40;;;4.00;;
64641;SDS011;59936;51.490;5.436;2024-03-07T06:38:48;6.50;;;3.90;;
64641;SDS011;59936;51.490;5.436;2024-03-07T06:41:15;11.00;;;5.20;;
64641;SDS011;59936;51.490;5.436;2024-03-07T06:43:45;8.80;;;5.40;;
64641;SDS011;59936;51.490;5.436;2024-03-07T06:46:13;9.40;;;5.70;;
64641;SDS011;59936;51.490;5.436;2024-03-07T06:48:40;8.90;;;5.10;;
64641;SDS011;59936;51.490;5.436;2024-03-07T06:51:07;8.70;;;4.70;;
64641;SDS011;59936;51.490;5.436;2024-03-07T06:53:34;10.10;;;5.80;;
64641;SDS011;59936;51.490;5.436;2024-03-07T06:56:01;8.40;;;4.30;;
64641;SDS011;59936;51.490;5.436;2024-03-07T06:58:28;8.80;;;5.00;;
64641;SDS011;59936;51.490;5.436;2024-03-07T07:00:55;17.00;;;7.90;;
64641;SDS011;59936;51.490;5.436;2024-03-07T07:03:21;13.30;;;6.80;;
64641;SDS011;59936;51.490;5.436;2024-03-07T07:05:48;14.40;;;6.70;;
64641;SDS011;59936;51.490;5.436;2024-03-07T07:08:16;13.00;;;6.30;;
64641;SDS011;59936;51.490;5.436;2024-03-07T07:10:43;10.30;;;5.90;;
64641;SDS011;59936;51.490;5.436;2024-03-07T07:13:10;15.80;;;8.40;;
64641;SDS011;59936;51.490;5.436;2024-03-07T07:15:37;15.90;;;9.50;;
64641;SDS011;59936;51.490;5.436;2024-03-07T07:18:04;18.10;;;9.30;;
64641;SDS011;59936;51.490;5.436;2024-03-07T07:20:31;13.90;;;7.40;;
64641;SDS011;59936;51.490;5.436;2024-03-07T07:22:59;13.60;;;7.10;;
64641;SDS011;59936;51.490;5.436;2024-03-07T07:25:26;14.70;;;8.10;;
64641;SDS011;59936;51.490;5.436;2024-03-07T07:27:53;13.90;;;7.70;;
64641;SDS011;59936;51.490;5.436;2024-03-07T07:30:21;15.30;;;8.20;;
64641;SDS011;59936;51.490;5.436;2024-03-07T07:35:17;14.90;;;8.40;;
64641;SDS011;59936;51.490;5.436;2024-03-07T07:37:45;13.90;;;8.00;;
64641;SDS011;59936;51.490;5.436;2024-03-07T07:40:16;12.90;;;7.80;;
64641;SDS011;59936;51.490;5.436;2024-03-07T07:45:14;19.20;;;10.20;;
64641;SDS011;59936;51.490;5.436;2024-03-07T07:47:42;17.60;;;10.30;;
64641;SDS011;59936;51.490;5.436;2024-03-07T07:50:13;21.00;;;12.00;;
64641;SDS011;59936;51.490;5.436;2024-03-07T07:52:44;14.10;;;8.70;;
64641;SDS011;59936;51.490;5.436;2024-03-07T07:57:54;15.50;;;9.50;;
64641;SDS011;59936;51.490;5.436;2024-03-07T08:00:26;21.60;;;12.90;;
64641;SDS011;59936;51.490;5.436;2024-03-07T08:05:32;18.00;;;10.70;;
64641;SDS011;59936;51.490;5.436;2024-03-07T08:10:33;17.80;;;11.20;;
64641;SDS011;59936;51.490;5.436;2024-03-07T08:13:03;22.70;;;15.00;;
64641;SDS011;59936;51.490;5.436;2024-03-07T08:15:31;23.60;;;13.70;;
64641;SDS011;59936;51.490;5.436;2024-03-07T08:17:58;21.70;;;12.90;;
64641;SDS011;59936;51.490;5.436;2024-03-07T08:22:54;22.80;;;12.90;;
64641;SDS011;59936;51.490;5.436;2024-03-07T08:25:26;17.40;;;10.60;;
64641;SDS011;59936;51.490;5.436;2024-03-07T08:27:55;19.80;;;12.90;;
64641;SDS011;59936;51.490;5.436;2024-03-07T08:32:51;16.50;;;10.40;;
64641;SDS011;59936;51.490;5.436;2024-03-07T08:35:21;20.40;;;11.60;;
64641;SDS011;59936;51.490;5.436;2024-03-07T08:37:49;18.90;;;10.20;;
64641;SDS011;59936;51.490;5.436;2024-03-07T08:40:18;17.60;;;10.00;;
64641;SDS011;59936;51.490;5.436;2024-03-07T08:45:19;22.90;;;14.10;;
64641;SDS011;59936;51.490;5.436;2024-03-07T08:47:47;27.40;;;18.50;;
64641;SDS011;59936;51.490;5.436;2024-03-07T08:50:20;22.10;;;12.90;;
64641;SDS011;59936;51.490;5.436;2024-03-07T08:55:16;20.90;;;12.50;;
64641;SDS011;59936;51.490;5.436;2024-03-07T08:57:48;23.50;;;16.70;;
64641;SDS011;59936;51.490;5.436;2024-03-07T09:00:15;18.50;;;11.20;;
64641;SDS011;59936;51.490;5.436;2024-03-07T09:02:44;19.70;;;11.60;;
64641;SDS011;59936;51.490;5.436;2024-03-07T09:07:37;19.70;;;13.00;;
64641;SDS011;59936;51.490;5.436;2024-03-07T09:10:04;20.80;;;13.80;;
64641;SDS011;59936;51.490;5.436;2024-03-07T09:12:32;17.00;;;10.80;;
64641;SDS011;59936;51.490;5.436;2024-03-07T09:14:59;21.60;;;13.80;;
64641;SDS011;59936;51.490;5.436;2024-03-07T09:19:52;15.40;;;10.10;;
64641;SDS011;59936;51.490;5.436;2024-03-07T09:22:19;19.70;;;12.80;;
64641;SDS011;59936;51.490;5.436;2024-03-07T09:24:46;26.50;;;17.10;;
64641;SDS011;59936;51.490;5.436;2024-03-07T09:27:13;18.70;;;13.00;;
64641;SDS011;59936;51.490;5.436;2024-03-07T09:32:06;16.20;;;9.80;;
64641;SDS011;59936;51.490;5.436;2024-03-07T09:34:33;19.10;;;12.50;;
64641;SDS011;59936;51.490;5.436;2024-03-07T09:37:01;18.70;;;12.40;;
64641;SDS011;59936;51.490;5.436;2024-03-07T09:39:28;19.40;;;12.50;;
64641;SDS011;59936;51.490;5.436;2024-03-07T09:44:22;19.90;;;12.50;;
64641;SDS011;59936;51.490;5.436;2024-03-07T09:46:54;17.70;;;11.20;;
64641;SDS011;59936;51.490;5.436;2024-03-07T09:49:22;17.60;;;11.60;;
64641;SDS011;59936;51.490;5.436;2024-03-07T09:51:55;15.50;;;10.70;;
64641;SDS011;59936;51.490;5.436;2024-03-07T09:56:53;15.30;;;11.00;;
64641;SDS011;59936;51.490;5.436;2024-03-07T09:59:26;17.30;;;12.00;;
64641;SDS011;59936;51.490;5.436;2024-03-07T10:07:05;15.20;;;10.10;;
64641;SDS011;59936;51.490;5.436;2024-03-07T10:09:33;13.60;;;9.10;;
64641;SDS011;59936;51.490;5.436;2024-03-07T10:12:00;13.90;;;9.00;;
64641;SDS011;59936;51.490;5.436;2024-03-07T10:14:27;12.40;;;8.60;;
64641;SDS011;59936;51.490;5.436;2024-03-07T10:19:24;15.50;;;10.60;;
64641;SDS011;59936;51.490;5.436;2024-03-07T10:21:54;16.40;;;11.20;;
64641;SDS011;59936;51.490;5.436;2024-03-07T10:24:23;16.20;;;10.20;;
64641;SDS011;59936;51.490;5.436;2024-03-07T10:29:19;14.10;;;10.30;;
64641;SDS011;59936;51.490;5.436;2024-03-07T10:31:46;12.60;;;9.30;;
64641;SDS011;59936;51.490;5.436;2024-03-07T10:34:13;22.10;;;16.30;;
64641;SDS011;59936;51.490;5.436;2024-03-07T10:36:42;16.90;;;11.30;;
64641;SDS011;59936;51.490;5.436;2024-03-07T10:41:37;15.50;;;10.20;;
64641;SDS011;59936;51.490;5.436;2024-03-07T10:44:20;16.80;;;10.80;;
64641;SDS011;59936;51.490;5.436;2024-03-07T10:46:55;16.10;;;10.70;;
64641;SDS011;59936;51.490;5.436;2024-03-07T10:49:22;16.60;;;10.40;;
64641;SDS011;59936;51.490;5.436;2024-03-07T10:57:50;16.70;;;11.40;;
64641;SDS011;59936;51.490;5.436;2024-03-07T11:02:56;17.80;;;12.00;;
64641;SDS011;59936;51.490;5.436;2024-03-07T11:05:26;16.30;;;10.40;;
64641;SDS011;59936;51.490;5.436;2024-03-07T11:07:56;16.20;;;10.50;;
64641;SDS011;59936;51.490;5.436;2024-03-07T11:10:26;13.10;;;9.60;;
64641;SDS011;59936;51.490;5.436;2024-03-07T11:15:21;13.70;;;9.20;;
64641;SDS011;59936;51.490;5.436;2024-03-07T11:17:51;16.60;;;11.10;;
64641;SDS011;59936;51.490;5.436;2024-03-07T11:20:24;19.30;;;13.60;;
64641;SDS011;59936;51.490;5.436;2024-03-07T11:22:59;18.80;;;13.90;;
64641;SDS011;59936;51.490;5.436;2024-03-07T11:27:57;17.40;;;10.80;;
64641;SDS011;59936;51.490;5.436;2024-03-07T11:30:26;17.70;;;12.50;;
64641;SDS011;59936;51.490;5.436;2024-03-07T11:32:53;13.70;;;9.90;;
64641;SDS011;59936;51.490;5.436;2024-03-07T11:35:21;18.80;;;13.60;;
64641;SDS011;59936;51.490;5.436;2024-03-07T11:42:52;18.50;;;12.00;;
64641;SDS011;59936;51.490;5.436;2024-03-07T11:45:20;16.10;;;10.40;;
64641;SDS011;59936;51.490;5.436;2024-03-07T11:47:47;17.70;;;12.40;;
64641;SDS011;59936;51.490;5.436;2024-03-07T11:52:41;13.30;;;9.60;;
64641;SDS011;59936;51.490;5.436;2024-03-07T11:55:08;17.70;;;10.60;;
64641;SDS011;59936;51.490;5.436;2024-03-07T11:57:35;11.40;;;8.00;;
64641;SDS011;59936;51.490;5.436;2024-03-07T12:00:02;11.10;;;7.80;;
64641;SDS011;59936;51.490;5.436;2024-03-07T12:04:57;13.90;;;9.20;;
64641;SDS011;59936;51.490;5.436;2024-03-07T12:07:24;12.70;;;8.30;;
64641;SDS011;59936;51.490;5.436;2024-03-07T12:09:51;15.10;;;9.50;;
64641;SDS011;59936;51.490;5.436;2024-03-07T12:14:44;13.00;;;8.80;;
64641;SDS011;59936;51.490;5.436;2024-03-07T12:17:11;17.70;;;11.70;;
64641;SDS011;59936;51.490;5.436;2024-03-07T12:19:39;19.00;;;13.60;;
64641;SDS011;59936;51.490;5.436;2024-03-07T12:24:40;16.40;;;10.90;;
64641;SDS011;59936;51.490;5.436;2024-03-07T12:32:08;13.70;;;8.60;;
64641;SDS011;59936;51.490;5.436;2024-03-07T12:34:39;16.10;;;11.10;;
64641;SDS011;59936;51.490;5.436;2024-03-07T12:37:09;12.10;;;7.90;;
64641;SDS011;59936;51.490;5.436;2024-03-07T12:42:03;11.90;;;7.30;;
64641;SDS011;59936;51.490;5.436;2024-03-07T12:44:40;10.00;;;6.50;;
64641;SDS011;59936;51.490;5.436;2024-03-07T12:47:09;17.10;;;10.30;;
64641;SDS011;59936;51.490;5.436;2024-03-07T12:52:03;14.80;;;9.00;;
64641;SDS011;59936;51.490;5.436;2024-03-07T12:54:31;13.20;;;9.10;;
64641;SDS011;59936;51.490;5.436;2024-03-07T12:57:00;15.40;;;10.20;;
64641;SDS011;59936;51.490;5.436;2024-03-07T12:59:26;14.60;;;9.30;;
64641;SDS011;59936;51.490;5.436;2024-03-07T13:04:20;14.60;;;10.00;;
64641;SDS011;59936;51.490;5.436;2024-03-07T13:06:47;16.60;;;9.80;;
64641;SDS011;59936;51.490;5.436;2024-03-07T13:09:14;10.50;;;7.20;;
64641;SDS011;59936;51.490;5.436;2024-03-07T13:11:41;13.70;;;9.10;;
64641;SDS011;59936;51.490;5.436;2024-03-07T13:16:34;12.70;;;8.00;;
64641;SDS011;59936;51.490;5.436;2024-03-07T13:19:01;10.70;;;7.20;;
64641;SDS011;59936;51.490;5.436;2024-03-07T13:21:28;11.50;;;8.00;;
64641;SDS011;59936;51.490;5.436;2024-03-07T13:23:55;12.10;;;8.00;;
64641;SDS011;59936;51.490;5.436;2024-03-07T13:28:49;13.10;;;7.60;;
64641;SDS011;59936;51.490;5.436;2024-03-07T13:31:19;15.60;;;9.00;;
64641;SDS011;59936;51.490;5.436;2024-03-07T13:33:46;16.10;;;10.50;;
64641;SDS011;59936;51.490;5.436;2024-03-07T13:36:13;12.80;;;8.40;;
64641;SDS011;59936;51.490;5.436;2024-03-07T13:41:06;15.10;;;10.20;;
64641;SDS011;59936;51.490;5.436;2024-03-07T13:43:33;14.70;;;9.20;;
64641;SDS011;59936;51.490;5.436;2024-03-07T13:46:00;15.50;;;9.00;;
64641;SDS011;59936;51.490;5.436;2024-03-07T13:50:54;12.80;;;8.30;;
64641;SDS011;59936;51.490;5.436;2024-03-07T13:53:22;14.60;;;8.70;;
64641;SDS011;59936;51.490;5.436;2024-03-07T14:08:20;13.80;;;8.00;;
64641;SDS011;59936;51.490;5.436;2024-03-07T14:23:41;19.30;;;11.70;;
64641;SDS011;59936;51.490;5.436;2024-03-07T14:32:59;10.10;;;7.20;;
64641;SDS011;59936;51.490;5.436;2024-03-07T14:35:31;10.90;;;7.50;;
64641;SDS011;59936;51.490;5.436;2024-03-07T14:38:40;10.50;;;6.80;;
64641;SDS011;59936;51.490;5.436;2024-03-07T14:44:08;10.50;;;6.30;;
64641;SDS011;59936;51.490;5.436;2024-03-07T14:46:36;10.70;;;7.00;;
64641;SDS011;59936;51.490;5.436;2024-03-07T14:49:03;8.40;;;5.50;;
64641;SDS011;59936;51.490;5.436;2024-03-07T14:53:59;12.20;;;8.20;;
64641;SDS011;59936;51.490;5.436;2024-03-07T14:56:25;10.60;;;6.50;;
64641;SDS011;59936;51.490;5.436;2024-03-07T14:58:52;12.20;;;7.80;;
64641;SDS011;59936;51.490;5.436;2024-03-07T15:01:19;11.80;;;7.20;;
64641;SDS011;59936;51.490;5.436;2024-03-07T15:06:13;11.70;;;7.10;;
64641;SDS011;59936;51.490;5.436;2024-03-07T15:08:40;11.10;;;7.80;;
64641;SDS011;59936;51.490;5.436;2024-03-07T15:16:20;16.20;;;9.70;;
64641;SDS011;59936;51.490;5.436;2024-03-07T15:18:47;13.30;;;8.20;;
64641;SDS011;59936;51.490;5.436;2024-03-07T15:21:14;9.20;;;6.20;;
64641;SDS011;59936;51.490;5.436;2024-03-07T15:23:41;14.40;;;9.40;;
64641;SDS011;59936;51.490;5.436;2024-03-07T15:28:35;12.80;;;7.50;;
64641;SDS011;59936;51.490;5.436;2024-03-07T15:31:02;18.90;;;11.90;;
64641;SDS011;59936;51.490;5.436;2024-03-07T15:33:29;14.10;;;9.10;;
64641;SDS011;59936;51.490;5.436;2024-03-07T15:38:22;10.40;;;7.50;;
64641;SDS011;59936;51.490;5.436;2024-03-07T15:40:49;11.60;;;7.40;;
64641;SDS011;59936;51.490;5.436;2024-03-07T15:43:29;12.50;;;7.80;;
64641;SDS011;59936;51.490;5.436;2024-03-07T15:48:23;14.00;;;9.40;;
64641;SDS011;59936;51.490;5.436;2024-03-07T15:50:50;12.70;;;8.40;;
64641;SDS011;59936;51.490;5.436;2024-03-07T15:55:45;13.70;;;8.80;;
64641;SDS011;59936;51.490;5.436;2024-03-07T15:58:13;10.70;;;7.40;;
64641;SDS011;59936;51.490;5.436;2024-03-07T16:00:39;10.70;;;7.10;;
64641;SDS011;59936;51.490;5.436;2024-03-07T16:03:07;9.80;;;5.90;;
64641;SDS011;59936;51.490;5.436;2024-03-07T16:08:03;10.10;;;6.60;;
64641;SDS011;59936;51.490;5.436;2024-03-07T16:10:35;9.40;;;6.20;;
64641;SDS011;59936;51.490;5.436;2024-03-07T16:13:07;14.90;;;10.00;;
64641;SDS011;59936;51.490;5.436;2024-03-07T16:15:37;15.30;;;10.20;;
64641;SDS011;59936;51.490;5.436;2024-03-07T16:20:32;12.50;;;8.00;;
64641;SDS011;59936;51.490;5.436;2024-03-07T16:23:00;13.80;;;8.80;;
64641;SDS011;59936;51.490;5.436;2024-03-07T16:25:28;15.10;;;9.20;;
64641;SDS011;59936;51.490;5.436;2024-03-07T16:27:55;15.50;;;9.10;;
64641;SDS011;59936;51.490;5.436;2024-03-07T16:30:22;15.50;;;10.30;;
64641;SDS011;59936;51.490;5.436;2024-03-07T16:32:52;10.10;;;7.10;;
64641;SDS011;59936;51.490;5.436;2024-03-07T16:35:19;9.30;;;6.40;;
64641;SDS011;59936;51.490;5.436;2024-03-07T16:37:47;9.20;;;6.30;;
64641;SDS011;59936;51.490;5.436;2024-03-07T16:42:46;10.00;;;5.20;;
64641;SDS011;59936;51.490;5.436;2024-03-07T16:45:15;8.40;;;5.50;;
64641;SDS011;59936;51.490;5.436;2024-03-07T16:47:46;9.70;;;5.50;;
64641;SDS011;59936;51.490;5.436;2024-03-07T16:52:48;11.00;;;7.20;;
64641;SDS011;59936;51.490;5.436;2024-03-07T16:55:16;9.90;;;6.70;;
64641;SDS011;59936;51.490;5.436;2024-03-07T16:57:44;10.00;;;5.70;;
64641;SDS011;59936;51.490;5.436;2024-03-07T17:02:46;8.70;;;5.70;;
64641;SDS011;59936;51.490;5.436;2024-03-07T17:05:13;8.90;;;5.80;;
64641;SDS011;59936;51.490;5.436;2024-03-07T17:07:41;7.60;;;4.60;;
64641;SDS011;59936;51.490;5.436;2024-03-07T17:10:09;11.00;;;6.20;;
64641;SDS011;59936;51.490;5.436;2024-03-07T17:15:03;7.90;;;4.80;;
64641;SDS011;59936;51.490;5.436;2024-03-07T17:17:30;8.20;;;5.40;;
64641;SDS011;59936;51.490;5.436;2024-03-07T17:19:57;8.10;;;4.60;;
64641;SDS011;59936;51.490;5.436;2024-03-07T17:22:24;8.00;;;5.20;;
64641;SDS011;59936;51.490;5.436;2024-03-07T17:27:17;9.20;;;5.30;;
64641;SDS011;59936;51.490;5.436;2024-03-07T17:29:44;11.50;;;7.30;;
64641;SDS011;59936;51.490;5.436;2024-03-07T17:32:11;10.20;;;5.60;;
64641;SDS011;59936;51.490;5.436;2024-03-07T17:37:05;8.80;;;5.90;;
64641;SDS011;59936;51.490;5.436;2024-03-07T17:39:31;7.70;;;4.60;;
64641;SDS011;59936;51.490;5.436;2024-03-07T17:41:58;8.30;;;4.50;;
64641;SDS011;59936;51.490;5.436;2024-03-07T17:44:25;9.30;;;5.90;;
64641;SDS011;59936;51.490;5.436;2024-03-07T17:49:19;7.30;;;4.40;;
64641;SDS011;59936;51.490;5.436;2024-03-07T17:51:45;7.80;;;4.10;;
64641;SDS011;59936;51.490;5.436;2024-03-07T17:54:12;6.90;;;4.00;;